sensor_id;sensor_type;location;lat;lon;timestamp;P1;durP1;ratioP1;P2;durP2;ratioP2
8626;SDS011;4351;51.422;6.794;2023-07-29T00:00:26;4.93;;;2.60;;
8626;SDS011;4351;51.422;6.794;2023-07-29T00:02:54;4.43;;;2.47;;
8626;SDS011;4351;51.422;6.794;2023-07-29T00:05:22;6.17;;;2.93;;
8626;SDS011;4351;51.422;6.794;2023-07-29T00:07:50;5.63;;;2.77;;
8626;SDS011;4351;51.422;6.794;2023-07-29T00:10:18;4.37;;;2.47;;
8626;SDS011;4351;51.422;6.794;2023-07-29T00:12:47;3.10;;;2.60;;
8626;SDS011;4351;51.422;6.794;2023-07-29T00:15:15;4.13;;;2.50;;
8626;SDS011;4351;51.422;6.794;2023-07-29T00:17:43;5.33;;;3.03;;
8626;SDS011;4351;51.422;6.794;2023-07-29T00:20:11;5.33;;;3.17;;
8626;SDS011;4351;51.422;6.794;2023-07-29T00:22:39;4.80;;;2.90;;
8626;SDS011;4351;51.422;6.794;2023-07-29T00:25:07;9.33;;;3.10;;
8626;SDS011;4351;51.422;6.794;2023-07-29T00:27:35;4.80;;;2.97;;
8626;SDS011;4351;51.422;6.794;2023-07-29T00:30:05;3.10;;;2.80;;
8626;SDS011;4351;51.422;6.794;2023-07-29T00:32:35;3.47;;;2.80;;
8626;SDS011;4351;51.422;6.794;2023-07-29T00:35:05;3.97;;;2.40;;
8626;SDS011;4351;51.422;6.794;2023-07-29T00:37:35;5.37;;;2.73;;
8626;SDS011;4351;51.422;6.794;2023-07-29T00:40:05;4.87;;;2.70;;
8626;SDS011;4351;51.422;6.794;2023-07-29T00:42:41;4.37;;;3.27;;
8626;SDS011;4351;51.422;6.794;2023-07-29T00:45:12;6.57;;;3.20;;
8626;SDS011;4351;51.422;6.794;2023-07-29T00:47:40;4.77;;;2.80;;
8626;SDS011;4351;51.422;6.794;2023-07-29T00:50:09;2.93;;;2.37;;
8626;SDS011;4351;51.422;6.794;2023-07-29T00:52:39;3.37;;;2.57;;
8626;SDS011;4351;51.422;6.794;2023-07-29T00:55:07;3.27;;;2.60;;
8626;SDS011;4351;51.422;6.794;2023-07-29T00:57:36;5.07;;;2.80;;
8626;SDS011;4351;51.422;6.794;2023-07-29T01:00:04;3.80;;;2.70;;
8626;SDS011;4351;51.422;6.794;2023-07-29T01:02:36;5.73;;;2.87;;
8626;SDS011;4351;51.422;6.794;2023-07-29T01:05:04;4.67;;;2.53;;
8626;SDS011;4351;51.422;6.794;2023-07-29T01:07:33;4.17;;;2.90;;
8626;SDS011;4351;51.422;6.794;2023-07-29T01:10:07;3.27;;;2.50;;
8626;SDS011;4351;51.422;6.794;2023-07-29T01:12:49;3.70;;;3.10;;
8626;SDS011;4351;51.422;6.794;2023-07-29T01:15:23;4.37;;;3.30;;
8626;SDS011;4351;51.422;6.794;2023-07-29T01:18:02;5.23;;;3.00;;
8626;SDS011;4351;51.422;6.794;2023-07-29T01:20:36;4.87;;;2.97;;
8626;SDS011;4351;51.422;6.794;2023-07-29T01:23:06;3.90;;;2.70;;
8626;SDS011;4351;51.422;6.794;2023-07-29T01:25:35;3.27;;;2.50;;
8626;SDS011;4351;51.422;6.794;2023-07-29T01:28:04;3.33;;;2.93;;
8626;SDS011;4351;51.422;6.794;2023-07-29T01:30:34;4.63;;;2.70;;
8626;SDS011;4351;51.422;6.794;2023-07-29T01:33:09;3.40;;;2.70;;
8626;SDS011;4351;51.422;6.794;2023-07-29T01:35:44;4.80;;;3.20;;
8626;SDS011;4351;51.422;6.794;2023-07-29T01:38:14;6.20;;;3.10;;
8626;SDS011;4351;51.422;6.794;2023-07-29T01:40:46;3.80;;;2.80;;
8626;SDS011;4351;51.422;6.794;2023-07-29T01:43:16;5.20;;;2.90;;
8626;SDS011;4351;51.422;6.794;2023-07-29T01:45:45;4.03;;;2.97;;
8626;SDS011;4351;51.422;6.794;2023-07-29T01:48:13;4.40;;;3.17;;
8626;SDS011;4351;51.422;6.794;2023-07-29T01:50:40;3.37;;;3.00;;
8626;SDS011;4351;51.422;6.794;2023-07-29T01:53:08;3.80;;;3.20;;
8626;SDS011;4351;51.422;6.794;2023-07-29T01:55:36;4.47;;;3.13;;
8626;SDS011;4351;51.422;6.794;2023-07-29T01:58:05;3.60;;;2.80;;
8626;SDS011;4351;51.422;6.794;2023-07-29T02:00:36;4.07;;;3.23;;
8626;SDS011;4351;51.422;6.794;2023-07-29T02:03:04;3.10;;;2.73;;
8626;SDS011;4351;51.422;6.794;2023-07-29T02:05:32;4.30;;;2.87;;
8626;SDS011;4351;51.422;6.794;2023-07-29T02:08:00;5.30;;;3.13;;
8626;SDS011;4351;51.422;6.794;2023-07-29T02:10:28;4.13;;;3.40;;
8626;SDS011;4351;51.422;6.794;2023-07-29T02:12:56;5.90;;;3.60;;
8626;SDS011;4351;51.422;6.794;2023-07-29T02:15:25;5.43;;;3.57;;
8626;SDS011;4351;51.422;6.794;2023-07-29T02:17:54;6.30;;;3.70;;
8626;SDS011;4351;51.422;6.794;2023-07-29T02:20:22;7.13;;;3.57;;
8626;SDS011;4351;51.422;6.794;2023-07-29T02:22:50;7.87;;;3.67;;
8626;SDS011;4351;51.422;6.794;2023-07-29T02:25:18;4.17;;;3.40;;
8626;SDS011;4351;51.422;6.794;2023-07-29T02:27:46;5.63;;;3.77;;
8626;SDS011;4351;51.422;6.794;2023-07-29T02:30:14;4.57;;;3.80;;
8626;SDS011;4351;51.422;6.794;2023-07-29T02:32:44;3.77;;;3.43;;
8626;SDS011;4351;51.422;6.794;2023-07-29T02:35:12;6.00;;;3.63;;
8626;SDS011;4351;51.422;6.794;2023-07-29T02:37:40;5.43;;;3.70;;
8626;SDS011;4351;51.422;6.794;2023-07-29T02:40:08;4.47;;;3.47;;
8626;SDS011;4351;51.422;6.794;2023-07-29T02:42:36;7.63;;;4.17;;
8626;SDS011;4351;51.422;6.794;2023-07-29T02:45:05;3.37;;;3.07;;
8626;SDS011;4351;51.422;6.794;2023-07-29T02:47:36;3.83;;;3.40;;
8626;SDS011;4351;51.422;6.794;2023-07-29T02:50:06;6.13;;;3.23;;
8626;SDS011;4351;51.422;6.794;2023-07-29T02:52:35;5.37;;;3.60;;
8626;SDS011;4351;51.422;6.794;2023-07-29T02:55:03;6.57;;;3.77;;
8626;SDS011;4351;51.422;6.794;2023-07-29T02:57:31;4.47;;;3.47;;
8626;SDS011;4351;51.422;6.794;2023-07-29T02:59:59;4.17;;;3.53;;
8626;SDS011;4351;51.422;6.794;2023-07-29T03:02:27;5.50;;;3.80;;
8626;SDS011;4351;51.422;6.794;2023-07-29T03:04:55;4.97;;;3.47;;
8626;SDS011;4351;51.422;6.794;2023-07-29T03:07:25;5.10;;;3.83;;
8626;SDS011;4351;51.422;6.794;2023-07-29T03:09:53;3.80;;;3.40;;
8626;SDS011;4351;51.422;6.794;2023-07-29T03:12:20;4.57;;;3.80;;
8626;SDS011;4351;51.422;6.794;2023-07-29T03:14:49;5.30;;;3.43;;
8626;SDS011;4351;51.422;6.794;2023-07-29T03:17:17;7.37;;;4.13;;
8626;SDS011;4351;51.422;6.794;2023-07-29T03:19:45;5.47;;;4.30;;
8626;SDS011;4351;51.422;6.794;2023-07-29T03:22:12;7.53;;;4.30;;
8626;SDS011;4351;51.422;6.794;2023-07-29T03:24:42;5.67;;;4.00;;
8626;SDS011;4351;51.422;6.794;2023-07-29T03:27:09;7.07;;;4.13;;
8626;SDS011;4351;51.422;6.794;2023-07-29T03:29:37;5.63;;;4.30;;
8626;SDS011;4351;51.422;6.794;2023-07-29T03:32:06;12.33;;;4.50;;
8626;SDS011;4351;51.422;6.794;2023-07-29T03:34:34;4.07;;;3.60;;
8626;SDS011;4351;51.422;6.794;2023-07-29T03:37:02;5.83;;;3.90;;
8626;SDS011;4351;51.422;6.794;2023-07-29T03:39:29;6.03;;;4.63;;
8626;SDS011;4351;51.422;6.794;2023-07-29T03:41:59;9.87;;;4.90;;
8626;SDS011;4351;51.422;6.794;2023-07-29T03:44:27;9.93;;;4.80;;
8626;SDS011;4351;51.422;6.794;2023-07-29T03:46:55;6.27;;;4.63;;
8626;SDS011;4351;51.422;6.794;2023-07-29T03:49:23;6.47;;;4.97;;
8626;SDS011;4351;51.422;6.794;2023-07-29T03:51:51;7.27;;;4.80;;
8626;SDS011;4351;51.422;6.794;2023-07-29T03:54:18;5.23;;;4.23;;
8626;SDS011;4351;51.422;6.794;2023-07-29T03:56:46;6.33;;;4.40;;
8626;SDS011;4351;51.422;6.794;2023-07-29T03:59:15;6.33;;;3.90;;
8626;SDS011;4351;51.422;6.794;2023-07-29T04:01:44;4.40;;;3.77;;
8626;SDS011;4351;51.422;6.794;2023-07-29T04:04:12;3.77;;;3.27;;
8626;SDS011;4351;51.422;6.794;2023-07-29T04:06:40;5.33;;;3.43;;
8626;SDS011;4351;51.422;6.794;2023-07-29T04:09:08;5.10;;;3.20;;
8626;SDS011;4351;51.422;6.794;2023-07-29T04:11:36;4.23;;;3.53;;
8626;SDS011;4351;51.422;6.794;2023-07-29T04:14:04;2.80;;;2.60;;
8626;SDS011;4351;51.422;6.794;2023-07-29T04:16:34;3.10;;;2.77;;
8626;SDS011;4351;51.422;6.794;2023-07-29T04:19:03;7.60;;;3.50;;
8626;SDS011;4351;51.422;6.794;2023-07-29T04:21:30;4.17;;;3.10;;
8626;SDS011;4351;51.422;6.794;2023-07-29T04:23:58;4.67;;;3.70;;
8626;SDS011;4351;51.422;6.794;2023-07-29T04:26:26;6.93;;;3.20;;
8626;SDS011;4351;51.422;6.794;2023-07-29T04:28:54;4.50;;;3.10;;
8626;SDS011;4351;51.422;6.794;2023-07-29T04:31:22;5.73;;;4.00;;
8626;SDS011;4351;51.422;6.794;2023-07-29T04:33:52;5.97;;;3.90;;
8626;SDS011;4351;51.422;6.794;2023-07-29T04:36:20;5.47;;;4.27;;
8626;SDS011;4351;51.422;6.794;2023-07-29T04:38:48;6.10;;;4.00;;
8626;SDS011;4351;51.422;6.794;2023-07-29T04:41:16;5.03;;;3.63;;
8626;SDS011;4351;51.422;6.794;2023-07-29T04:43:44;5.33;;;3.97;;
8626;SDS011;4351;51.422;6.794;2023-07-29T04:46:11;6.67;;;4.97;;
8626;SDS011;4351;51.422;6.794;2023-07-29T04:48:39;4.37;;;3.80;;
8626;SDS011;4351;51.422;6.794;2023-07-29T04:51:09;5.20;;;4.20;;
8626;SDS011;4351;51.422;6.794;2023-07-29T04:53:39;4.27;;;3.87;;
8626;SDS011;4351;51.422;6.794;2023-07-29T04:56:07;4.47;;;4.07;;
8626;SDS011;4351;51.422;6.794;2023-07-29T04:58:35;6.10;;;5.50;;
8626;SDS011;4351;51.422;6.794;2023-07-29T05:01:03;5.03;;;4.40;;
8626;SDS011;4351;51.422;6.794;2023-07-29T05:03:32;5.93;;;5.33;;
8626;SDS011;4351;51.422;6.794;2023-07-29T05:06:00;6.43;;;5.53;;
8626;SDS011;4351;51.422;6.794;2023-07-29T05:08:30;5.93;;;4.43;;
8626;SDS011;4351;51.422;6.794;2023-07-29T05:10:58;6.60;;;5.27;;
8626;SDS011;4351;51.422;6.794;2023-07-29T05:13:25;5.97;;;5.37;;
8626;SDS011;4351;51.422;6.794;2023-07-29T05:15:54;7.27;;;4.73;;
8626;SDS011;4351;51.422;6.794;2023-07-29T05:18:22;7.17;;;5.37;;
8626;SDS011;4351;51.422;6.794;2023-07-29T05:20:50;7.27;;;4.90;;
8626;SDS011;4351;51.422;6.794;2023-07-29T05:23:18;7.37;;;4.97;;
8626;SDS011;4351;51.422;6.794;2023-07-29T05:25:48;5.40;;;4.67;;
8626;SDS011;4351;51.422;6.794;2023-07-29T05:28:16;6.97;;;5.20;;
8626;SDS011;4351;51.422;6.794;2023-07-29T05:30:44;6.63;;;5.23;;
8626;SDS011;4351;51.422;6.794;2023-07-29T05:33:13;6.30;;;5.03;;
8626;SDS011;4351;51.422;6.794;2023-07-29T05:35:41;5.80;;;5.20;;
8626;SDS011;4351;51.422;6.794;2023-07-29T05:38:09;7.63;;;5.13;;
8626;SDS011;4351;51.422;6.794;2023-07-29T05:40:36;7.77;;;4.50;;
8626;SDS011;4351;51.422;6.794;2023-07-29T05:43:06;6.10;;;4.47;;
8626;SDS011;4351;51.422;6.794;2023-07-29T05:45:34;6.70;;;4.07;;
8626;SDS011;4351;51.422;6.794;2023-07-29T05:48:02;4.83;;;4.00;;
8626;SDS011;4351;51.422;6.794;2023-07-29T05:50:30;5.20;;;3.60;;
8626;SDS011;4351;51.422;6.794;2023-07-29T05:52:58;5.07;;;3.20;;
8626;SDS011;4351;51.422;6.794;2023-07-29T05:55:26;4.83;;;2.90;;
8626;SDS011;4351;51.422;6.794;2023-07-29T05:57:55;3.20;;;2.60;;
8626;SDS011;4351;51.422;6.794;2023-07-29T06:00:25;4.57;;;2.93;;
8626;SDS011;4351;51.422;6.794;2023-07-29T06:02:53;3.00;;;2.30;;
8626;SDS011;4351;51.422;6.794;2023-07-29T06:05:22;3.97;;;2.60;;
8626;SDS011;4351;51.422;6.794;2023-07-29T06:07:51;3.60;;;2.43;;
8626;SDS011;4351;51.422;6.794;2023-07-29T06:10:19;3.73;;;2.70;;
8626;SDS011;4351;51.422;6.794;2023-07-29T06:12:47;2.57;;;2.23;;
8626;SDS011;4351;51.422;6.794;2023-07-29T06:15:15;6.27;;;2.80;;
8626;SDS011;4351;51.422;6.794;2023-07-29T06:17:44;5.20;;;2.70;;
8626;SDS011;4351;51.422;6.794;2023-07-29T06:20:12;2.93;;;2.40;;
8626;SDS011;4351;51.422;6.794;2023-07-29T06:22:40;4.60;;;2.73;;
8626;SDS011;4351;51.422;6.794;2023-07-29T06:25:09;4.97;;;2.47;;
8626;SDS011;4351;51.422;6.794;2023-07-29T06:27:37;3.00;;;2.47;;
8626;SDS011;4351;51.422;6.794;2023-07-29T06:30:05;4.20;;;2.47;;
8626;SDS011;4351;51.422;6.794;2023-07-29T06:32:34;7.33;;;2.80;;
8626;SDS011;4351;51.422;6.794;2023-07-29T06:35:04;4.73;;;2.63;;
8626;SDS011;4351;51.422;6.794;2023-07-29T06:37:32;4.23;;;2.50;;
8626;SDS011;4351;51.422;6.794;2023-07-29T06:40:00;5.47;;;2.33;;
8626;SDS011;4351;51.422;6.794;2023-07-29T06:42:30;4.70;;;2.40;;
8626;SDS011;4351;51.422;6.794;2023-07-29T06:44:58;3.63;;;2.37;;
8626;SDS011;4351;51.422;6.794;2023-07-29T06:47:26;3.10;;;2.00;;
8626;SDS011;4351;51.422;6.794;2023-07-29T06:49:54;8.10;;;2.20;;
8626;SDS011;4351;51.422;6.794;2023-07-29T06:52:24;6.50;;;2.10;;
8626;SDS011;4351;51.422;6.794;2023-07-29T06:54:52;2.80;;;2.00;;
8626;SDS011;4351;51.422;6.794;2023-07-29T06:57:20;2.80;;;2.13;;
8626;SDS011;4351;51.422;6.794;2023-07-29T06:59:48;2.10;;;1.77;;
8626;SDS011;4351;51.422;6.794;2023-07-29T07:02:16;2.70;;;1.73;;
8626;SDS011;4351;51.422;6.794;2023-07-29T07:04:44;2.20;;;2.00;;
8626;SDS011;4351;51.422;6.794;2023-07-29T07:07:12;2.70;;;1.60;;
8626;SDS011;4351;51.422;6.794;2023-07-29T07:09:41;2.17;;;1.40;;
8626;SDS011;4351;51.422;6.794;2023-07-29T07:12:09;3.50;;;1.60;;
8626;SDS011;4351;51.422;6.794;2023-07-29T07:14:37;3.23;;;1.70;;
8626;SDS011;4351;51.422;6.794;2023-07-29T07:17:05;3.07;;;1.50;;
8626;SDS011;4351;51.422;6.794;2023-07-29T07:19:36;2.80;;;1.60;;
8626;SDS011;4351;51.422;6.794;2023-07-29T07:22:03;1.97;;;1.50;;
8626;SDS011;4351;51.422;6.794;2023-07-29T07:24:31;2.20;;;1.60;;
8626;SDS011;4351;51.422;6.794;2023-07-29T07:27:01;3.30;;;1.60;;
8626;SDS011;4351;51.422;6.794;2023-07-29T07:29:29;2.40;;;1.53;;
8626;SDS011;4351;51.422;6.794;2023-07-29T07:31:57;1.70;;;1.43;;
8626;SDS011;4351;51.422;6.794;2023-07-29T07:34:25;3.17;;;1.50;;
8626;SDS011;4351;51.422;6.794;2023-07-29T07:36:52;2.47;;;1.50;;
8626;SDS011;4351;51.422;6.794;2023-07-29T07:39:21;1.83;;;1.40;;
8626;SDS011;4351;51.422;6.794;2023-07-29T07:41:48;4.53;;;1.80;;
8626;SDS011;4351;51.422;6.794;2023-07-29T07:44:18;3.23;;;1.47;;
8626;SDS011;4351;51.422;6.794;2023-07-29T07:46:46;1.40;;;1.27;;
8626;SDS011;4351;51.422;6.794;2023-07-29T07:49:14;1.50;;;1.30;;
8626;SDS011;4351;51.422;6.794;2023-07-29T07:51:43;1.80;;;1.40;;
8626;SDS011;4351;51.422;6.794;2023-07-29T07:54:10;4.93;;;1.50;;
8626;SDS011;4351;51.422;6.794;2023-07-29T07:56:38;2.60;;;1.53;;
8626;SDS011;4351;51.422;6.794;2023-07-29T07:59:06;1.90;;;1.40;;
8626;SDS011;4351;51.422;6.794;2023-07-29T08:01:36;2.90;;;1.57;;
8626;SDS011;4351;51.422;6.794;2023-07-29T08:04:05;2.00;;;1.40;;
8626;SDS011;4351;51.422;6.794;2023-07-29T08:06:33;1.50;;;1.20;;
8626;SDS011;4351;51.422;6.794;2023-07-29T08:09:02;1.20;;;1.10;;
8626;SDS011;4351;51.422;6.794;2023-07-29T08:11:30;1.63;;;1.20;;
8626;SDS011;4351;51.422;6.794;2023-07-29T08:13:58;2.13;;;1.10;;
8626;SDS011;4351;51.422;6.794;2023-07-29T08:16:26;1.00;;;0.90;;
8626;SDS011;4351;51.422;6.794;2023-07-29T08:18:55;1.20;;;1.00;;
8626;SDS011;4351;51.422;6.794;2023-07-29T08:21:23;2.47;;;1.20;;
8626;SDS011;4351;51.422;6.794;2023-07-29T08:23:51;1.30;;;1.00;;
8626;SDS011;4351;51.422;6.794;2023-07-29T08:26:19;2.17;;;1.30;;
8626;SDS011;4351;51.422;6.794;2023-07-29T08:28:48;1.30;;;1.00;;
8626;SDS011;4351;51.422;6.794;2023-07-29T08:31:20;1.90;;;1.00;;
8626;SDS011;4351;51.422;6.794;2023-07-29T08:33:48;1.63;;;1.00;;
8626;SDS011;4351;51.422;6.794;2023-07-29T08:36:17;1.60;;;1.10;;
8626;SDS011;4351;51.422;6.794;2023-07-29T08:38:45;2.37;;;1.10;;
8626;SDS011;4351;51.422;6.794;2023-07-29T08:41:13;2.07;;;1.13;;
8626;SDS011;4351;51.422;6.794;2023-07-29T08:43:44;2.37;;;1.00;;
8626;SDS011;4351;51.422;6.794;2023-07-29T08:46:19;2.20;;;1.40;;
8626;SDS011;4351;51.422;6.794;2023-07-29T08:48:47;1.53;;;1.20;;
8626;SDS011;4351;51.422;6.794;2023-07-29T08:51:18;2.83;;;1.40;;
8626;SDS011;4351;51.422;6.794;2023-07-29T08:53:47;2.10;;;1.10;;
8626;SDS011;4351;51.422;6.794;2023-07-29T08:56:16;1.63;;;1.37;;
8626;SDS011;4351;51.422;6.794;2023-07-29T08:58:44;1.37;;;1.27;;
8626;SDS011;4351;51.422;6.794;2023-07-29T09:01:13;1.07;;;0.97;;
8626;SDS011;4351;51.422;6.794;2023-07-29T09:03:42;1.47;;;1.27;;
8626;SDS011;4351;51.422;6.794;2023-07-29T09:06:10;3.27;;;1.27;;
8626;SDS011;4351;51.422;6.794;2023-07-29T09:08:40;1.53;;;1.20;;
8626;SDS011;4351;51.422;6.794;2023-07-29T09:11:08;3.47;;;1.20;;
8626;SDS011;4351;51.422;6.794;2023-07-29T09:13:36;1.37;;;1.00;;
8626;SDS011;4351;51.422;6.794;2023-07-29T09:16:04;1.97;;;1.27;;
8626;SDS011;4351;51.422;6.794;2023-07-29T09:18:33;1.10;;;1.00;;
8626;SDS011;4351;51.422;6.794;2023-07-29T09:21:01;1.53;;;1.17;;
8626;SDS011;4351;51.422;6.794;2023-07-29T09:23:37;1.50;;;1.23;;
8626;SDS011;4351;51.422;6.794;2023-07-29T09:26:08;2.77;;;1.10;;
8626;SDS011;4351;51.422;6.794;2023-07-29T09:28:36;1.77;;;1.10;;
8626;SDS011;4351;51.422;6.794;2023-07-29T09:31:06;2.40;;;1.17;;
8626;SDS011;4351;51.422;6.794;2023-07-29T09:33:34;1.77;;;1.33;;
8626;SDS011;4351;51.422;6.794;2023-07-29T09:36:08;1.77;;;1.20;;
8626;SDS011;4351;51.422;6.794;2023-07-29T09:38:37;2.87;;;1.40;;
8626;SDS011;4351;51.422;6.794;2023-07-29T09:41:05;1.70;;;1.40;;
8626;SDS011;4351;51.422;6.794;2023-07-29T09:43:35;1.23;;;1.13;;
8626;SDS011;4351;51.422;6.794;2023-07-29T09:46:03;1.50;;;1.40;;
8626;SDS011;4351;51.422;6.794;2023-07-29T09:48:33;1.40;;;1.20;;
8626;SDS011;4351;51.422;6.794;2023-07-29T09:51:09;1.70;;;1.20;;
8626;SDS011;4351;51.422;6.794;2023-07-29T09:53:42;2.40;;;1.10;;
8626;SDS011;4351;51.422;6.794;2023-07-29T09:56:13;1.73;;;1.40;;
8626;SDS011;4351;51.422;6.794;2023-07-29T09:58:44;3.17;;;1.50;;
8626;SDS011;4351;51.422;6.794;2023-07-29T10:01:13;1.77;;;1.20;;
8626;SDS011;4351;51.422;6.794;2023-07-29T10:03:41;1.57;;;1.27;;
8626;SDS011;4351;51.422;6.794;2023-07-29T10:06:11;1.60;;;1.50;;
8626;SDS011;4351;51.422;6.794;2023-07-29T10:08:40;1.27;;;1.17;;
8626;SDS011;4351;51.422;6.794;2023-07-29T10:11:10;1.97;;;1.40;;
8626;SDS011;4351;51.422;6.794;2023-07-29T10:13:38;1.97;;;1.63;;
8626;SDS011;4351;51.422;6.794;2023-07-29T10:16:08;2.20;;;1.33;;
8626;SDS011;4351;51.422;6.794;2023-07-29T10:18:36;2.50;;;1.37;;
8626;SDS011;4351;51.422;6.794;2023-07-29T10:21:05;1.60;;;1.27;;
8626;SDS011;4351;51.422;6.794;2023-07-29T10:23:34;1.70;;;1.23;;
8626;SDS011;4351;51.422;6.794;2023-07-29T10:26:06;1.43;;;1.20;;
8626;SDS011;4351;51.422;6.794;2023-07-29T10:28:39;2.43;;;1.17;;
8626;SDS011;4351;51.422;6.794;2023-07-29T10:31:09;3.00;;;1.50;;
8626;SDS011;4351;51.422;6.794;2023-07-29T10:33:39;1.20;;;1.10;;
8626;SDS011;4351;51.422;6.794;2023-07-29T10:36:07;2.00;;;1.50;;
8626;SDS011;4351;51.422;6.794;2023-07-29T10:38:36;3.00;;;1.60;;
8626;SDS011;4351;51.422;6.794;2023-07-29T10:41:04;3.57;;;1.90;;
8626;SDS011;4351;51.422;6.794;2023-07-29T10:43:33;2.70;;;1.70;;
8626;SDS011;4351;51.422;6.794;2023-07-29T10:46:15;3.27;;;1.60;;
8626;SDS011;4351;51.422;6.794;2023-07-29T10:48:52;5.30;;;2.03;;
8626;SDS011;4351;51.422;6.794;2023-07-29T10:51:22;5.33;;;1.80;;
8626;SDS011;4351;51.422;6.794;2023-07-29T10:53:55;3.80;;;1.70;;
8626;SDS011;4351;51.422;6.794;2023-07-29T10:56:25;2.70;;;1.70;;
8626;SDS011;4351;51.422;6.794;2023-07-29T10:58:55;2.60;;;1.70;;
8626;SDS011;4351;51.422;6.794;2023-07-29T11:01:29;2.43;;;1.70;;
8626;SDS011;4351;51.422;6.794;2023-07-29T11:09:54;3.37;;;1.50;;
8626;SDS011;4351;51.422;6.794;2023-07-29T11:12:37;2.60;;;1.77;;
8626;SDS011;4351;51.422;6.794;2023-07-29T11:15:11;5.87;;;2.10;;
8626;SDS011;4351;51.422;6.794;2023-07-29T11:17:43;3.00;;;1.47;;
8626;SDS011;4351;51.422;6.794;2023-07-29T11:20:12;2.23;;;1.70;;
8626;SDS011;4351;51.422;6.794;2023-07-29T11:22:41;5.97;;;1.60;;
8626;SDS011;4351;51.422;6.794;2023-07-29T11:25:10;3.07;;;1.47;;
8626;SDS011;4351;51.422;6.794;2023-07-29T11:27:39;2.30;;;1.83;;
8626;SDS011;4351;51.422;6.794;2023-07-29T11:30:07;3.43;;;1.73;;
8626;SDS011;4351;51.422;6.794;2023-07-29T11:32:37;2.10;;;1.77;;
8626;SDS011;4351;51.422;6.794;2023-07-29T11:35:08;1.70;;;1.60;;
8626;SDS011;4351;51.422;6.794;2023-07-29T11:37:38;2.67;;;1.60;;
8626;SDS011;4351;51.422;6.794;2023-07-29T11:40:07;2.53;;;1.77;;
8626;SDS011;4351;51.422;6.794;2023-07-29T11:42:36;2.57;;;1.53;;
8626;SDS011;4351;51.422;6.794;2023-07-29T11:45:05;2.60;;;1.60;;
8626;SDS011;4351;51.422;6.794;2023-07-29T11:47:34;3.53;;;1.70;;
8626;SDS011;4351;51.422;6.794;2023-07-29T11:50:04;3.37;;;1.80;;
8626;SDS011;4351;51.422;6.794;2023-07-29T11:52:37;2.23;;;1.77;;
8626;SDS011;4351;51.422;6.794;2023-07-29T11:55:07;3.53;;;2.40;;
8626;SDS011;4351;51.422;6.794;2023-07-29T11:57:36;5.07;;;3.37;;
8626;SDS011;4351;51.422;6.794;2023-07-29T12:00:06;6.80;;;3.17;;
8626;SDS011;4351;51.422;6.794;2023-07-29T12:02:37;4.93;;;2.47;;
8626;SDS011;4351;51.422;6.794;2023-07-29T12:05:06;4.90;;;2.57;;
8626;SDS011;4351;51.422;6.794;2023-07-29T12:07:39;5.20;;;2.90;;
8626;SDS011;4351;51.422;6.794;2023-07-29T12:10:07;6.13;;;2.60;;
8626;SDS011;4351;51.422;6.794;2023-07-29T12:12:38;2.67;;;1.60;;
8626;SDS011;4351;51.422;6.794;2023-07-29T12:15:11;2.93;;;1.60;;
8626;SDS011;4351;51.422;6.794;2023-07-29T12:17:39;2.33;;;1.70;;
8626;SDS011;4351;51.422;6.794;2023-07-29T12:20:08;2.87;;;1.60;;
8626;SDS011;4351;51.422;6.794;2023-07-29T12:22:39;2.03;;;1.63;;
8626;SDS011;4351;51.422;6.794;2023-07-29T12:25:07;2.73;;;1.63;;
8626;SDS011;4351;51.422;6.794;2023-07-29T12:27:35;3.83;;;2.17;;
8626;SDS011;4351;51.422;6.794;2023-07-29T12:30:04;4.80;;;1.97;;
8626;SDS011;4351;51.422;6.794;2023-07-29T12:32:32;3.20;;;2.00;;
8626;SDS011;4351;51.422;6.794;2023-07-29T12:35:00;2.57;;;1.80;;
8626;SDS011;4351;51.422;6.794;2023-07-29T12:37:32;2.93;;;1.60;;
8626;SDS011;4351;51.422;6.794;2023-07-29T12:40:01;3.00;;;2.00;;
8626;SDS011;4351;51.422;6.794;2023-07-29T12:42:30;1.90;;;1.50;;
8626;SDS011;4351;51.422;6.794;2023-07-29T12:44:58;1.70;;;1.30;;
8626;SDS011;4351;51.422;6.794;2023-07-29T12:47:26;1.97;;;1.60;;
8626;SDS011;4351;51.422;6.794;2023-07-29T12:49:53;4.93;;;1.40;;
8626;SDS011;4351;51.422;6.794;2023-07-29T12:52:21;2.50;;;1.93;;
8626;SDS011;4351;51.422;6.794;2023-07-29T12:54:49;2.53;;;1.50;;
8626;SDS011;4351;51.422;6.794;2023-07-29T12:57:19;3.57;;;1.70;;
8626;SDS011;4351;51.422;6.794;2023-07-29T12:59:46;3.63;;;1.70;;
8626;SDS011;4351;51.422;6.794;2023-07-29T13:02:14;2.07;;;1.47;;
8626;SDS011;4351;51.422;6.794;2023-07-29T13:04:42;3.50;;;1.80;;
8626;SDS011;4351;51.422;6.794;2023-07-29T13:07:10;3.50;;;1.77;;
8626;SDS011;4351;51.422;6.794;2023-07-29T13:09:38;2.60;;;1.83;;
8626;SDS011;4351;51.422;6.794;2023-07-29T13:12:06;2.90;;;2.20;;
8626;SDS011;4351;51.422;6.794;2023-07-29T13:14:35;2.87;;;1.60;;
8626;SDS011;4351;51.422;6.794;2023-07-29T13:17:03;2.10;;;1.40;;
8626;SDS011;4351;51.422;6.794;2023-07-29T13:19:32;3.33;;;1.83;;
8626;SDS011;4351;51.422;6.794;2023-07-29T13:21:59;3.37;;;1.60;;
8626;SDS011;4351;51.422;6.794;2023-07-29T13:24:28;1.73;;;1.60;;
8626;SDS011;4351;51.422;6.794;2023-07-29T13:26:56;2.47;;;1.60;;
8626;SDS011;4351;51.422;6.794;2023-07-29T13:29:24;3.87;;;1.77;;
8626;SDS011;4351;51.422;6.794;2023-07-29T13:31:53;2.30;;;1.70;;
8626;SDS011;4351;51.422;6.794;2023-07-29T13:34:21;3.07;;;1.73;;
8626;SDS011;4351;51.422;6.794;2023-07-29T13:36:49;1.80;;;1.70;;
8626;SDS011;4351;51.422;6.794;2023-07-29T13:39:17;3.13;;;1.83;;
8626;SDS011;4351;51.422;6.794;2023-07-29T13:41:45;4.83;;;1.73;;
8626;SDS011;4351;51.422;6.794;2023-07-29T13:44:13;3.70;;;1.80;;
8626;SDS011;4351;51.422;6.794;2023-07-29T13:46:40;2.10;;;1.70;;
8626;SDS011;4351;51.422;6.794;2023-07-29T13:49:10;2.80;;;1.90;;
8626;SDS011;4351;51.422;6.794;2023-07-29T13:51:38;3.73;;;2.10;;
8626;SDS011;4351;51.422;6.794;2023-07-29T13:54:05;2.90;;;2.27;;
8626;SDS011;4351;51.422;6.794;2023-07-29T13:56:33;2.83;;;1.93;;
8626;SDS011;4351;51.422;6.794;2023-07-29T13:59:02;2.63;;;1.87;;
8626;SDS011;4351;51.422;6.794;2023-07-29T14:01:29;3.20;;;2.10;;
8626;SDS011;4351;51.422;6.794;2023-07-29T14:03:57;2.93;;;2.30;;
8626;SDS011;4351;51.422;6.794;2023-07-29T14:06:27;5.00;;;2.47;;
8626;SDS011;4351;51.422;6.794;2023-07-29T14:09:11;3.63;;;2.17;;
8626;SDS011;4351;51.422;6.794;2023-07-29T14:11:39;5.07;;;2.40;;
8626;SDS011;4351;51.422;6.794;2023-07-29T14:14:07;2.93;;;2.37;;
8626;SDS011;4351;51.422;6.794;2023-07-29T14:16:35;4.60;;;2.50;;
8626;SDS011;4351;51.422;6.794;2023-07-29T14:19:03;5.07;;;2.60;;
8626;SDS011;4351;51.422;6.794;2023-07-29T14:21:32;3.77;;;2.70;;
8626;SDS011;4351;51.422;6.794;2023-07-29T14:24:00;4.40;;;2.60;;
8626;SDS011;4351;51.422;6.794;2023-07-29T14:26:28;3.57;;;2.60;;
8626;SDS011;4351;51.422;6.794;2023-07-29T14:28:55;3.50;;;2.60;;
8626;SDS011;4351;51.422;6.794;2023-07-29T14:31:23;3.80;;;3.07;;
8626;SDS011;4351;51.422;6.794;2023-07-29T14:33:51;3.23;;;2.67;;
8626;SDS011;4351;51.422;6.794;2023-07-29T14:36:19;3.27;;;2.50;;
8626;SDS011;4351;51.422;6.794;2023-07-29T14:38:48;3.70;;;2.20;;
8626;SDS011;4351;51.422;6.794;2023-07-29T14:41:16;4.07;;;2.47;;
8626;SDS011;4351;51.422;6.794;2023-07-29T14:43:44;2.73;;;2.10;;
8626;SDS011;4351;51.422;6.794;2023-07-29T14:46:13;3.10;;;2.00;;
8626;SDS011;4351;51.422;6.794;2023-07-29T14:48:41;2.10;;;1.90;;
8626;SDS011;4351;51.422;6.794;2023-07-29T14:51:09;3.63;;;2.00;;
8626;SDS011;4351;51.422;6.794;2023-07-29T14:53:37;6.90;;;2.93;;
8626;SDS011;4351;51.422;6.794;2023-07-29T14:56:07;5.43;;;2.70;;
8626;SDS011;4351;51.422;6.794;2023-07-29T14:58:35;3.63;;;2.33;;
8626;SDS011;4351;51.422;6.794;2023-07-29T15:01:03;4.40;;;2.83;;
8626;SDS011;4351;51.422;6.794;2023-07-29T15:03:34;4.83;;;3.30;;
8626;SDS011;4351;51.422;6.794;2023-07-29T15:06:03;3.90;;;2.83;;
8626;SDS011;4351;51.422;6.794;2023-07-29T15:08:31;6.13;;;3.50;;
8626;SDS011;4351;51.422;6.794;2023-07-29T15:10:59;6.57;;;3.30;;
8626;SDS011;4351;51.422;6.794;2023-07-29T15:13:31;7.03;;;3.73;;
8626;SDS011;4351;51.422;6.794;2023-07-29T15:15:59;10.57;;;4.97;;
8626;SDS011;4351;51.422;6.794;2023-07-29T15:18:28;7.53;;;4.03;;
8626;SDS011;4351;51.422;6.794;2023-07-29T15:20:56;7.50;;;4.03;;
8626;SDS011;4351;51.422;6.794;2023-07-29T15:23:29;8.13;;;4.40;;
8626;SDS011;4351;51.422;6.794;2023-07-29T15:25:57;6.37;;;3.60;;
8626;SDS011;4351;51.422;6.794;2023-07-29T15:28:25;5.60;;;3.40;;
8626;SDS011;4351;51.422;6.794;2023-07-29T15:30:56;6.90;;;3.20;;